Time;durP1;ratioP1;P1;durP2;ratioP2;P2;SDS_P1;SDS_P2;PMS_P1;PMS_P2;Temp;Humidity;BMP_temperature;BMP_pressure;BME280_temperature;BME280_humidity;BME280_pressure;Samples;Min_cycle;Max_cycle;Signal;HPM_P1;HPM_P2
2022/10/22 00:00:54;;;;;;;8.87;8.00;;;16.10;99.90;;;;;;5094298;28;20436;-70
2022/10/22 00:03:20;;;;;;;8.90;8.30;;;16.10;99.90;;;;;;5094078;28;20884;-70
2022/10/22 00:05:47;;;;;;;10.83;10.03;;;16.10;99.90;;;;;;5093753;28;20544;-70
2022/10/22 00:08:14;;;;;;;11.27;10.17;;;16.10;99.90;;;;;;5094003;28;20453;-70
2022/10/22 00:10:40;;;;;;;10.47;9.57;;;16.10;99.90;;;;;;5093262;28;20474;-70
2022/10/22 00:13:06;;;;;;;8.97;8.43;;;16.10;99.90;;;;;;5093546;28;20517;-70
2022/10/22 00:15:34;;;;;;;9.20;8.60;;;16.10;99.90;;;;;;5093230;28;20773;-70
2022/10/22 00:17:59;;;;;;;9.27;8.60;;;16.10;99.90;;;;;;5093821;28;20232;-70
2022/10/22 00:20:25;;;;;;;9.27;8.43;;;16.10;99.90;;;;;;5092857;28;20410;-70
2022/10/22 00:22:51;;;;;;;8.40;7.80;;;16.10;99.90;;;;;;5093797;28;20200;-70
2022/10/22 00:25:16;;;;;;;8.90;8.00;;;16.10;99.90;;;;;;5093676;28;20182;-70
2022/10/22 00:27:42;;;;;;;7.80;7.13;;;16.10;99.90;;;;;;5092973;28;20176;-70
2022/10/22 00:30:09;;;;;;;8.03;7.27;;;16.10;99.90;;;;;;5093522;28;20174;-70
2022/10/22 00:32:34;;;;;;;8.43;7.63;;;16.10;99.90;;;;;;5092809;28;20252;-70
2022/10/22 00:35:00;;;;;;;9.03;7.93;;;16.20;99.90;;;;;;5093423;28;20406;-70
2022/10/22 00:37:26;;;;;;;9.87;8.90;;;16.10;99.90;;;;;;5074809;28;20262;-70
2022/10/22 00:39:52;;;;;;;8.90;8.10;;;16.10;99.90;;;;;;5093369;28;20233;-70
2022/10/22 00:42:21;;;;;;;9.30;8.40;;;16.00;99.90;;;;;;5075084;28;20258;-70
2022/10/22 00:45:01;;;;;;;9.93;8.63;;;16.00;99.90;;;;;;5092703;28;20263;-70
2022/10/22 00:47:40;;;;;;;8.90;8.20;;;16.10;99.90;;;;;;5092738;28;20425;-70
2022/10/22 00:50:11;;;;;;;9.70;8.93;;;16.10;99.90;;;;;;5093310;28;20436;-70
2022/10/22 00:52:38;;;;;;;9.37;8.20;;;16.10;99.90;;;;;;5092589;28;20485;-69
2022/10/22 00:55:04;;;;;;;10.87;9.77;;;16.10;99.90;;;;;;5093089;28;20405;-70
2022/10/22 00:57:31;;;;;;;9.30;8.50;;;16.10;99.90;;;;;;5092434;28;20458;-70
2022/10/22 00:59:57;;;;;;;9.90;8.53;;;16.00;99.90;;;;;;5058539;28;20922;-70
2022/10/22 01:02:23;;;;;;;7.43;6.93;;;16.00;99.90;;;;;;5093061;28;20445;-70
2022/10/22 01:04:49;;;;;;;10.37;7.70;;;16.00;99.90;;;;;;5091873;28;20471;-70
2022/10/22 01:07:18;;;;;;;9.33;8.53;;;16.10;99.90;;;;;;5093044;28;20448;-70
2022/10/22 01:09:49;;;;;;;9.20;8.40;;;16.10;99.90;;;;;;5092331;28;20295;-70
2022/10/22 01:12:26;;;;;;;8.73;8.00;;;16.10;99.90;;;;;;5092950;28;20421;-70
2022/10/22 01:15:15;;;;;;;9.20;7.37;;;16.10;99.90;;;;;;5092965;28;20444;-70
2022/10/22 01:18:09;;;;;;;8.13;7.57;;;16.10;99.90;;;;;;5092092;28;20956;-70
2022/10/22 01:21:16;;;;;;;8.63;7.77;;;16.10;99.90;;;;;;5091966;28;20764;-71
2022/10/22 01:23:47;;;;;;;7.90;6.93;;;16.10;99.90;;;;;;4990266;28;20426;-70
2022/10/22 01:26:36;;;;;;;7.13;6.53;;;16.00;99.90;;;;;;4991039;28;20407;-70
2022/10/22 01:29:39;;;;;;;6.47;6.00;;;16.00;99.90;;;;;;5058227;28;20801;-70
2022/10/22 01:32:36;;;;;;;6.93;6.30;;;16.00;99.90;;;;;;5078385;28;20455;-70
2022/10/22 01:35:08;;;;;;;6.53;6.07;;;16.10;99.90;;;;;;5072957;28;20501;-70
2022/10/22 01:37:40;;;;;;;7.23;6.53;;;16.00;99.90;;;;;;5091925;28;20536;-70
2022/10/22 01:40:07;;;;;;;7.20;6.57;;;16.00;99.90;;;;;;5074673;28;20909;-70
2022/10/22 01:42:33;;;;;;;6.70;6.20;;;16.00;99.90;;;;;;5091980;28;20446;-70
2022/10/22 01:44:59;;;;;;;7.70;6.10;;;16.00;99.90;;;;;;5092270;28;20886;-70
2022/10/22 01:47:46;;;;;;;10.53;6.97;;;16.00;99.90;;;;;;5092223;28;20186;-70
2022/10/22 01:50:17;;;;;;;6.93;6.27;;;16.00;99.90;;;;;;5074426;28;20512;-70
2022/10/22 01:53:00;;;;;;;7.00;6.40;;;15.90;99.90;;;;;;5092003;28;20500;-70
2022/10/22 01:55:49;;;;;;;7.57;6.93;;;15.90;99.90;;;;;;5092511;28;20413;-70
2022/10/22 01:58:33;;;;;;;7.20;6.60;;;15.90;99.90;;;;;;5072668;28;20472;-70
2022/10/22 02:01:18;;;;;;;8.83;7.03;;;15.90;99.90;;;;;;5074243;28;20821;-70
2022/10/22 02:04:12;;;;;;;8.17;7.47;;;15.90;99.90;;;;;;5091758;28;20432;-70
2022/10/22 02:06:41;;;;;;;9.00;8.30;;;15.90;99.90;;;;;;5082435;28;20520;-70
2022/10/22 02:09:08;;;;;;;10.27;8.00;;;15.80;99.90;;;;;;5092284;28;20422;-70
2022/10/22 02:11:35;;;;;;;7.80;7.00;;;15.80;99.90;;;;;;5073738;28;20410;-70
2022/10/22 02:14:03;;;;;;;7.73;7.10;;;15.90;99.90;;;;;;5092274;28;20410;-70
2022/10/22 02:16:40;;;;;;;7.70;7.20;;;15.80;99.90;;;;;;5093107;28;20464;-74
2022/10/22 02:19:38;;;;;;;8.30;7.60;;;15.80;99.90;;;;;;5096023;28;20461;-70
2022/10/22 02:22:04;;;;;;;6.70;6.30;;;15.80;99.90;;;;;;5040426;28;20437;-70
2022/10/22 02:24:30;;;;;;;7.07;6.60;;;15.90;99.90;;;;;;5095410;28;20432;-74
2022/10/22 02:26:56;;;;;;;8.93;6.43;;;15.90;99.90;;;;;;5077833;28;20527;-70
2022/10/22 02:29:51;;;;;;;7.50;6.97;;;15.80;99.90;;;;;;5033370;28;20416;-70
2022/10/22 02:32:21;;;;;;;7.90;7.30;;;15.80;99.90;;;;;;5018885;28;20875;-70
2022/10/22 02:34:49;;;;;;;7.50;6.90;;;15.80;99.90;;;;;;5032705;28;20392;-70
2022/10/22 02:37:17;;;;;;;6.80;6.33;;;15.80;99.90;;;;;;5033129;28;20956;-70
2022/10/22 02:39:43;;;;;;;6.83;6.30;;;15.80;99.90;;;;;;5032539;28;20428;-70
2022/10/22 02:42:11;;;;;;;7.23;6.60;;;15.80;99.90;;;;;;5033197;28;20443;-70
2022/10/22 02:44:37;;;;;;;7.00;6.50;;;15.80;99.90;;;;;;5032467;28;20518;-70
2022/10/22 02:47:02;;;;;;;7.60;7.10;;;15.80;99.90;;;;;;5032573;28;20493;-70
2022/10/22 02:49:28;;;;;;;7.13;6.53;;;15.80;99.90;;;;;;5032957;28;20427;-70
2022/10/22 02:51:54;;;;;;;7.53;7.03;;;15.80;99.90;;;;;;5016901;28;20188;-70
2022/10/22 02:54:19;;;;;;;7.30;6.20;;;15.80;99.90;;;;;;5032199;28;20192;-70
2022/10/22 02:56:48;;;;;;;7.53;6.90;;;15.80;99.90;;;;;;5031895;28;20183;-70
2022/10/22 02:59:13;;;;;;;6.17;5.87;;;15.80;99.90;;;;;;5035169;28;20305;-70
2022/10/22 03:01:39;;;;;;;8.90;7.53;;;15.70;99.90;;;;;;5080431;28;20518;-70
2022/10/22 03:04:05;;;;;;;7.63;7.03;;;15.80;99.90;;;;;;5075010;28;20201;-70
2022/10/22 03:06:30;;;;;;;8.17;7.47;;;15.70;99.90;;;;;;5081856;28;20262;-68
2022/10/22 03:08:56;;;;;;;11.73;7.50;;;15.70;99.90;;;;;;5074287;28;20588;-69
2022/10/22 03:11:22;;;;;;;12.57;8.50;;;15.70;99.90;;;;;;5085849;28;20183;-68
2022/10/22 03:13:47;;;;;;;10.13;9.07;;;15.70;99.90;;;;;;5085158;28;20255;-68
2022/10/22 03:16:13;;;;;;;9.10;8.50;;;15.80;99.90;;;;;;5074696;28;20305;-68
2022/10/22 03:18:39;;;;;;;9.77;8.77;;;15.70;99.90;;;;;;5073835;28;20195;-68
2022/10/22 03:21:10;;;;;;;8.40;7.80;;;15.70;99.90;;;;;;5074371;28;20180;-69
2022/10/22 03:23:37;;;;;;;9.60;8.27;;;15.70;99.90;;;;;;5073687;28;20668;-69
2022/10/22 03:26:04;;;;;;;10.33;9.37;;;15.70;99.90;;;;;;5074722;28;20833;-68
2022/10/22 03:28:30;;;;;;;7.70;7.00;;;15.70;99.90;;;;;;5074101;28;20446;-68
2022/10/22 03:30:55;;;;;;;7.17;6.53;;;15.70;99.90;;;;;;5074226;28;20449;-68
2022/10/22 03:33:21;;;;;;;7.80;7.13;;;15.70;99.90;;;;;;5074156;28;20180;-68
2022/10/22 03:35:47;;;;;;;7.60;7.00;;;15.60;99.90;;;;;;5073794;28;20182;-68
2022/10/22 03:38:13;;;;;;;7.20;6.67;;;15.70;99.90;;;;;;5074259;28;20199;-68
2022/10/22 03:40:41;;;;;;;8.27;7.50;;;15.70;99.90;;;;;;5073619;28;20414;-68
2022/10/22 03:43:07;;;;;;;7.47;6.87;;;15.70;99.90;;;;;;5038957;28;20410;-68
2022/10/22 03:45:32;;;;;;;8.27;7.47;;;15.60;99.90;;;;;;5074207;28;20977;-68
2022/10/22 03:47:58;;;;;;;8.70;7.77;;;15.60;99.90;;;;;;5073821;28;20759;-68
2022/10/22 03:50:24;;;;;;;7.10;6.67;;;15.60;99.90;;;;;;5074072;28;20177;-68
2022/10/22 03:52:50;;;;;;;7.97;7.23;;;15.60;99.90;;;;;;5073460;28;20260;-68
2022/10/22 03:55:16;;;;;;;14.77;7.67;;;15.60;99.90;;;;;;5073964;28;20461;-68
2022/10/22 03:57:41;;;;;;;7.90;7.23;;;15.60;99.90;;;;;;5055309;28;20241;-69
2022/10/22 04:00:08;;;;;;;8.00;7.20;;;15.60;99.90;;;;;;5074008;28;20174;-68
2022/10/22 04:02:33;;;;;;;6.83;6.33;;;15.50;99.90;;;;;;5073895;28;20593;-68
2022/10/22 04:04:59;;;;;;;7.57;6.97;;;15.60;99.90;;;;;;5072899;28;20448;-68
2022/10/22 04:07:25;;;;;;;7.30;6.70;;;15.50;99.90;;;;;;5073449;28;20233;-68
2022/10/22 04:09:51;;;;;;;7.63;6.97;;;15.60;99.90;;;;;;5073172;28;20180;-68
2022/10/22 04:12:16;;;;;;;7.90;7.20;;;15.40;99.90;;;;;;5073658;28;20398;-68
2022/10/22 04:14:42;;;;;;;7.77;7.07;;;15.40;99.90;;;;;;5073250;28;20171;-68
2022/10/22 04:17:08;;;;;;;15.30;8.73;;;15.40;99.90;;;;;;5073039;28;20227;-68
2022/10/22 04:19:34;;;;;;;12.63;9.07;;;15.40;99.90;;;;;;5073389;28;20231;-68
2022/10/22 04:22:00;;;;;;;12.17;10.97;;;15.40;99.90;;;;;;5072878;28;20176;-68
2022/10/22 04:24:26;;;;;;;13.93;12.40;;;15.30;99.90;;;;;;5073377;28;20413;-69
2022/10/22 04:26:54;;;;;;;17.43;14.30;;;15.30;99.90;;;;;;5072795;28;20222;-68
2022/10/22 04:29:20;;;;;;;14.70;13.27;;;15.40;99.90;;;;;;5073023;28;20520;-68
2022/10/22 04:31:46;;;;;;;16.03;13.60;;;15.30;99.90;;;;;;5072107;28;20505;-69
2022/10/22 04:34:11;;;;;;;16.03;12.87;;;15.30;99.90;;;;;;5004999;28;20777;-68
2022/10/22 04:36:37;;;;;;;14.40;12.90;;;15.30;99.90;;;;;;5073319;28;20557;-68
2022/10/22 04:39:04;;;;;;;15.10;13.10;;;15.40;99.90;;;;;;5072305;28;20215;-68
2022/10/22 04:41:32;;;;;;;13.77;11.30;;;15.30;99.90;;;;;;5073108;28;20459;-68
2022/10/22 04:43:59;;;;;;;14.10;11.90;;;15.40;99.90;;;;;;5072421;28;20729;-68
2022/10/22 04:46:27;;;;;;;14.40;11.43;;;15.30;99.90;;;;;;5054917;28;20971;-68
2022/10/22 04:48:53;;;;;;;12.73;11.27;;;15.30;99.90;;;;;;5072285;28;20440;-68
2022/10/22 04:51:21;;;;;;;12.57;10.90;;;15.30;99.90;;;;;;5072901;28;20428;-68
2022/10/22 04:53:47;;;;;;;11.70;10.60;;;15.30;99.90;;;;;;5072190;28;20179;-68
2022/10/22 04:56:19;;;;;;;14.57;10.53;;;15.30;99.90;;;;;;5072813;28;20420;-68
2022/10/22 04:58:47;;;;;;;10.70;9.90;;;15.30;99.90;;;;;;5072276;28;20445;-68
2022/10/22 05:01:16;;;;;;;10.60;9.60;;;15.40;99.90;;;;;;5072891;28;20430;-68
2022/10/22 05:03:43;;;;;;;9.50;8.60;;;15.50;99.90;;;;;;5072205;28;20417;-68
2022/10/22 05:06:09;;;;;;;10.20;8.70;;;15.40;99.90;;;;;;5072866;28;20414;-68
2022/10/22 05:08:35;;;;;;;9.97;7.93;;;15.50;99.90;;;;;;5054958;28;20417;-68
2022/10/22 05:11:13;;;;;;;10.13;9.20;;;15.50;99.90;;;;;;5071824;28;20546;-68
2022/10/22 05:13:39;;;;;;;9.53;8.67;;;15.50;99.90;;;;;;5072838;28;20401;-68
2022/10/22 05:16:06;;;;;;;10.30;9.40;;;15.40;99.90;;;;;;5072442;28;20469;-68
2022/10/22 05:18:34;;;;;;;8.67;8.07;;;15.50;99.90;;;;;;5072647;28;20543;-68
2022/10/22 05:21:00;;;;;;;11.63;10.50;;;15.60;99.90;;;;;;5071997;28;20705;-68
2022/10/22 05:23:27;;;;;;;10.13;9.23;;;15.50;99.90;;;;;;5072474;28;20492;-68
2022/10/22 05:25:52;;;;;;;9.57;8.60;;;15.50;99.90;;;;;;5071988;28;20179;-68
2022/10/22 05:28:18;;;;;;;10.20;9.20;;;15.60;99.90;;;;;;5072496;28;20425;-68
2022/10/22 05:30:52;;;;;;;9.80;8.00;;;15.60;99.90;;;;;;5072288;28;20179;-68
2022/10/22 05:33:18;;;;;;;9.77;8.87;;;15.60;99.90;;;;;;5072619;28;20249;-69
2022/10/22 05:35:44;;;;;;;9.30;8.50;;;15.60;99.90;;;;;;5071857;28;20502;-69
2022/10/22 05:38:09;;;;;;;10.10;8.30;;;15.60;99.90;;;;;;5072435;28;20209;-68
2022/10/22 05:40:38;;;;;;;8.63;7.93;;;15.70;99.90;;;;;;5054509;28;20186;-68
2022/10/22 05:43:03;;;;;;;15.07;7.93;;;15.80;99.90;;;;;;5071785;28;20179;-68
2022/10/22 05:45:29;;;;;;;8.47;7.67;;;15.70;99.90;;;;;;5054451;28;20417;-67
2022/10/22 05:47:54;;;;;;;9.10;8.20;;;15.60;99.90;;;;;;5053726;28;20188;-68
2022/10/22 05:50:20;;;;;;;8.47;7.70;;;15.60;99.90;;;;;;5073545;28;20608;-68
2022/10/22 05:52:46;;;;;;;7.43;6.93;;;15.60;99.90;;;;;;5075794;28;20182;-68
2022/10/22 05:55:11;;;;;;;8.37;7.77;;;15.60;99.90;;;;;;5058114;28;20180;-68
2022/10/22 05:57:38;;;;;;;8.67;7.97;;;15.60;99.90;;;;;;5076327;28;20233;-68
2022/10/22 06:00:05;;;;;;;10.00;7.87;;;15.60;99.90;;;;;;5075688;28;20203;-68
2022/10/22 06:02:30;;;;;;;9.83;9.03;;;15.60;99.90;;;;;;5076177;28;20422;-68
2022/10/22 06:04:56;;;;;;;12.33;10.47;;;15.50;99.90;;;;;;5075582;28;20463;-68
2022/10/22 06:07:22;;;;;;;9.80;8.97;;;15.60;99.90;;;;;;5076153;28;20206;-68
2022/10/22 06:09:49;;;;;;;11.30;10.30;;;15.60;99.90;;;;;;5075411;28;20179;-68
2022/10/22 06:12:15;;;;;;;9.93;9.13;;;15.60;99.90;;;;;;5076243;28;20179;-68
2022/10/22 06:14:40;;;;;;;10.40;9.53;;;15.60;99.90;;;;;;5075918;28;20464;-68
2022/10/22 06:17:06;;;;;;;10.20;9.30;;;15.60;99.90;;;;;;5057076;28;20465;-67
2022/10/22 06:19:32;;;;;;;9.80;9.00;;;15.60;99.90;;;;;;5075652;28;20684;-68
2022/10/22 06:21:57;;;;;;;10.30;9.40;;;15.60;99.90;;;;;;5057296;28;20183;-68
2022/10/22 06:24:23;;;;;;;9.17;8.53;;;15.60;99.90;;;;;;5075794;28;20187;-68
2022/10/22 06:26:50;;;;;;;10.10;9.30;;;15.70;99.90;;;;;;5075121;28;20626;-68
2022/10/22 06:29:16;;;;;;;9.47;8.67;;;15.70;99.90;;;;;;5075641;28;20246;-67
2022/10/22 06:31:41;;;;;;;9.90;8.63;;;15.70;99.90;;;;;;5075661;28;20418;-68
2022/10/22 06:34:11;;;;;;;9.10;8.37;;;15.60;99.90;;;;;;5074967;28;20241;-68
2022/10/22 06:36:37;;;;;;;9.10;8.50;;;15.70;99.90;;;;;;5080143;28;20537;-66
2022/10/22 06:39:04;;;;;;;9.47;8.70;;;15.70;99.90;;;;;;5094797;28;20475;-66
2022/10/22 06:41:30;;;;;;;12.13;9.53;;;15.70;99.90;;;;;;5077601;28;20402;-66
2022/10/22 06:43:56;;;;;;;9.03;8.13;;;15.60;99.90;;;;;;5088041;28;20413;-66
2022/10/22 06:46:23;;;;;;;10.30;9.40;;;15.70;99.90;;;;;;5083009;28;20777;-66
2022/10/22 06:48:50;;;;;;;11.40;9.83;;;15.60;99.90;;;;;;5088415;28;20492;-67
2022/10/22 06:51:16;;;;;;;10.03;9.17;;;15.60;99.90;;;;;;5085892;28;20444;-66
2022/10/22 06:53:42;;;;;;;10.20;9.40;;;15.70;99.90;;;;;;5079760;28;20441;-66
2022/10/22 06:56:17;;;;;;;9.97;9.07;;;15.60;99.90;;;;;;5084343;28;20623;-66
2022/10/22 06:58:45;;;;;;;9.60;8.90;;;15.70;99.90;;;;;;5079374;28;20195;-66
2022/10/22 07:01:14;;;;;;;9.97;9.10;;;15.70;99.90;;;;;;5077277;28;20818;-66
2022/10/22 07:03:40;;;;;;;12.80;11.70;;;15.70;99.90;;;;;;5094370;28;20462;-66
2022/10/22 07:06:10;;;;;;;12.73;11.73;;;15.70;99.90;;;;;;5091221;28;20671;-67
2022/10/22 07:08:35;;;;;;;14.33;10.37;;;15.80;99.90;;;;;;5089758;28;20463;-66
2022/10/22 07:11:08;;;;;;;10.50;9.50;;;15.80;99.90;;;;;;5094344;28;20443;-66
2022/10/22 07:13:34;;;;;;;14.80;10.93;;;15.90;99.90;;;;;;5095061;28;20188;-67
2022/10/22 07:16:00;;;;;;;10.40;9.40;;;15.90;99.90;;;;;;5093851;28;20422;-66
2022/10/22 07:18:26;;;;;;;8.53;7.73;;;16.00;99.90;;;;;;5076832;28;20466;-66
2022/10/22 07:20:51;;;;;;;8.60;7.90;;;16.10;99.90;;;;;;5094067;28;20932;-66
2022/10/22 07:23:17;;;;;;;9.30;7.70;;;16.20;99.90;;;;;;5076679;28;20424;-66
2022/10/22 07:25:43;;;;;;;8.03;7.23;;;16.20;99.90;;;;;;5094879;28;20187;-66
2022/10/22 07:28:09;;;;;;;7.80;7.20;;;16.30;99.90;;;;;;5093801;28;20655;-66
2022/10/22 07:30:36;;;;;;;7.30;6.80;;;16.40;99.90;;;;;;5094821;28;20187;-67
2022/10/22 07:33:02;;;;;;;7.50;7.03;;;16.40;99.90;;;;;;5093786;28;20407;-66
2022/10/22 07:35:28;;;;;;;7.40;6.63;;;16.50;99.90;;;;;;5094691;28;20731;-66
2022/10/22 07:37:54;;;;;;;8.03;7.23;;;16.60;99.90;;;;;;5093919;28;20464;-66
2022/10/22 07:40:20;;;;;;;7.73;6.97;;;16.60;99.90;;;;;;5094863;28;20419;-66
2022/10/22 07:42:45;;;;;;;6.63;6.03;;;16.70;99.90;;;;;;5094464;28;20612;-66
2022/10/22 07:45:11;;;;;;;8.60;6.37;;;16.80;99.90;;;;;;5093570;28;20226;-66
2022/10/22 07:47:37;;;;;;;6.57;5.97;;;16.80;99.90;;;;;;5094019;28;20187;-66
2022/10/22 07:50:03;;;;;;;7.63;6.93;;;16.80;99.90;;;;;;5093766;28;20187;-66
2022/10/22 07:52:29;;;;;;;6.33;5.80;;;16.90;99.90;;;;;;5094049;28;20529;-66
2022/10/22 07:54:54;;;;;;;7.70;6.90;;;16.90;99.90;;;;;;5093950;28;20486;-66
2022/10/22 07:57:20;;;;;;;6.50;6.00;;;16.90;99.90;;;;;;5094265;28;20193;-66
2022/10/22 07:59:46;;;;;;;6.30;5.90;;;17.00;99.90;;;;;;5094233;28;20179;-66
2022/10/22 08:02:12;;;;;;;8.90;6.30;;;17.00;99.90;;;;;;5093229;28;20169;-66
2022/10/22 08:04:39;;;;;;;6.80;6.27;;;17.00;99.90;;;;;;5094167;28;20210;-66
2022/10/22 08:07:04;;;;;;;6.40;5.90;;;17.10;99.90;;;;;;5093529;28;20325;-66
2022/10/22 08:09:30;;;;;;;6.47;5.87;;;17.10;99.90;;;;;;5093988;28;20909;-66
2022/10/22 08:11:56;;;;;;;6.20;5.80;;;17.10;99.90;;;;;;5093373;28;20196;-67
2022/10/22 08:14:21;;;;;;;6.60;6.20;;;17.20;99.90;;;;;;5058354;28;20176;-66
2022/10/22 08:16:47;;;;;;;6.47;5.80;;;17.30;99.90;;;;;;5093550;28;20626;-66
2022/10/22 08:19:17;;;;;;;6.37;5.67;;;17.30;99.90;;;;;;5093166;28;20303;-66
2022/10/22 08:21:44;;;;;;;6.30;5.70;;;17.50;99.90;;;;;;5093873;28;20604;-66
2022/10/22 08:24:10;;;;;;;5.83;5.40;;;17.50;99.90;;;;;;5093126;28;20852;-66
2022/10/22 08:26:36;;;;;;;6.23;5.13;;;17.60;99.90;;;;;;5093681;28;20411;-66
2022/10/22 08:29:01;;;;;;;5.50;5.00;;;17.60;99.90;;;;;;5093081;28;20616;-66
2022/10/22 08:31:27;;;;;;;5.80;5.27;;;17.70;99.90;;;;;;5093407;28;20251;-66
2022/10/22 08:33:53;;;;;;;6.57;5.87;;;17.80;99.90;;;;;;5093240;28;20628;-67
2022/10/22 08:36:18;;;;;;;7.53;5.13;;;17.80;99.90;;;;;;5075347;28;20176;-66
2022/10/22 08:38:44;;;;;;;6.03;5.50;;;18.00;99.90;;;;;;5093488;28;20239;-66
2022/10/22 08:41:21;;;;;;;6.03;5.53;;;18.00;99.90;;;;;;5092875;28;20183;-66
2022/10/22 08:43:55;;;;;;;6.13;5.53;;;18.00;99.90;;;;;;5093405;28;20179;-66
2022/10/22 08:46:45;;;;;;;5.63;4.80;;;18.00;99.90;;;;;;5093374;28;20427;-66
2022/10/22 08:49:24;;;;;;;5.43;5.00;;;18.10;99.90;;;;;;5092671;28;20438;-66
2022/10/22 08:51:51;;;;;;;6.63;4.70;;;18.10;99.90;;;;;;5093297;28;20413;-66
2022/10/22 08:54:37;;;;;;;8.07;5.70;;;18.10;99.90;;;;;;5075253;28;20493;-66
2022/10/22 08:57:22;;;;;;;5.47;4.53;;;18.00;99.90;;;;;;5092359;28;20406;-66
2022/10/22 09:00:10;;;;;;;6.70;5.03;;;18.00;99.90;;;;;;5092927;28;20418;-66
2022/10/22 09:02:42;;;;;;;5.30;4.90;;;17.90;99.90;;;;;;5093070;28;20407;-66
2022/10/22 09:05:34;;;;;;;4.90;4.40;;;17.90;99.90;;;;;;5092468;28;20401;-66
2022/10/22 09:08:00;;;;;;;4.70;4.40;;;17.90;99.90;;;;;;5092119;28;20991;-66
2022/10/22 09:10:31;;;;;;;6.20;4.60;;;17.90;99.90;;;;;;5092732;28;20414;-67
2022/10/22 09:12:57;;;;;;;5.50;4.50;;;17.80;99.90;;;;;;5074376;28;20863;-67
2022/10/22 09:15:23;;;;;;;4.73;4.33;;;17.80;99.90;;;;;;5092930;28;20497;-67
2022/10/22 09:18:00;;;;;;;6.07;4.53;;;17.80;99.90;;;;;;5092257;28;20250;-67
2022/10/22 09:20:37;;;;;;;6.67;4.80;;;17.80;99.90;;;;;;5074877;28;20259;-67
2022/10/22 09:23:12;;;;;;;4.87;4.40;;;17.80;99.90;;;;;;5092318;28;20729;-67
2022/10/22 09:25:39;;;;;;;5.40;4.90;;;17.70;99.90;;;;;;5092359;28;20406;-67
2022/10/22 09:28:04;;;;;;;7.17;5.70;;;17.70;99.90;;;;;;5092451;28;20448;-67
2022/10/22 09:30:34;;;;;;;5.77;5.17;;;17.70;99.90;;;;;;5092911;28;20914;-67
2022/10/22 09:33:05;;;;;;;6.20;5.60;;;17.60;99.90;;;;;;5092355;28;20177;-68
2022/10/22 09:36:05;;;;;;;6.43;5.57;;;17.60;99.90;;;;;;5093008;28;20402;-67
2022/10/22 09:38:38;;;;;;;6.47;5.70;;;17.60;99.90;;;;;;5039901;28;20453;-68
2022/10/22 09:41:04;;;;;;;5.93;5.43;;;17.60;99.90;;;;;;5091743;28;20906;-71
2022/10/22 09:43:31;;;;;;;5.83;5.10;;;17.70;99.90;;;;;;5092590;28;20468;-72
2022/10/22 09:46:00;;;;;;;6.17;5.57;;;17.80;99.90;;;;;;5088047;28;20415;-72
2022/10/22 09:48:38;;;;;;;6.73;6.00;;;17.90;99.90;;;;;;5082102;28;20423;-71
2022/10/22 09:51:15;;;;;;;6.10;5.40;;;18.00;99.90;;;;;;5061630;28;20514;-71
2022/10/22 09:53:43;;;;;;;5.53;5.03;;;18.20;99.90;;;;;;5081425;28;20403;-71
2022/10/22 09:56:26;;;;;;;8.20;5.10;;;18.20;99.90;;;;;;5080406;28;20753;-71
2022/10/22 09:58:55;;;;;;;5.40;4.87;;;18.00;99.90;;;;;;5065121;28;20450;-71
2022/10/22 10:01:24;;;;;;;5.30;4.90;;;18.00;99.90;;;;;;5081411;28;20422;-71
2022/10/22 10:03:50;;;;;;;5.30;4.80;;;18.00;99.90;;;;;;5081068;28;20417;-71
2022/10/22 10:06:21;;;;;;;4.63;4.23;;;18.00;99.90;;;;;;5082766;28;20429;-71
2022/10/22 10:08:48;;;;;;;7.37;4.80;;;18.00;99.90;;;;;;5085024;28;20226;-71
2022/10/22 10:11:30;;;;;;;10.27;7.27;;;17.80;99.90;;;;;;5080076;28;20415;-71
2022/10/22 10:14:24;;;;;;;4.90;4.50;;;17.90;99.90;;;;;;5061498;28;20899;-71
2022/10/22 10:17:33;;;;;;;8.20;7.00;;;18.10;99.90;;;;;;5082671;28;20466;-71
2022/10/22 10:20:10;;;;;;;6.93;5.50;;;18.30;99.90;;;;;;5071593;28;20420;-71
2022/10/22 10:22:47;;;;;;;5.43;4.57;;;18.30;99.90;;;;;;5072187;28;20419;-71
2022/10/22 10:25:52;;;;;;;10.33;7.50;;;18.30;99.90;;;;;;5064186;28;20414;-71
2022/10/22 10:28:52;;;;;;;4.97;4.03;;;18.30;99.90;;;;;;5052843;28;20488;-71
2022/10/22 10:31:43;;;;;;;5.67;4.90;;;18.10;99.90;;;;;;5078915;28;20435;-71
2022/10/22 10:34:36;;;;;;;8.17;6.43;;;18.30;99.90;;;;;;5080151;28;20422;-71
2022/10/22 10:37:25;;;;;;;4.80;4.47;;;18.40;99.90;;;;;;5082642;28;20757;-71
2022/10/22 10:39:53;;;;;;;7.67;6.87;;;18.40;99.90;;;;;;5093730;28;20499;-71
2022/10/22 10:42:19;;;;;;;4.73;4.30;;;18.30;99.90;;;;;;5094711;28;20422;-71
2022/10/22 10:44:55;;;;;;;4.27;4.07;;;18.30;99.90;;;;;;5095705;28;20497;-71
2022/10/22 10:47:39;;;;;;;6.03;5.47;;;18.20;99.90;;;;;;5091524;28;20176;-71
2022/10/22 10:50:52;;;;;;;6.63;6.07;;;18.20;99.90;;;;;;5094711;28;20406;-71
2022/10/22 10:53:36;;;;;;;5.03;4.57;;;18.40;99.90;;;;;;5009477;28;20421;-71
2022/10/22 10:56:14;;;;;;;168.57;117.20;;;18.50;99.90;;;;;;5074106;28;20412;-71
2022/10/22 10:59:02;;;;;;;12.87;9.63;;;18.50;99.90;;;;;;5075120;28;20455;-70
2022/10/22 11:01:48;;;;;;;7.50;5.17;;;18.60;99.90;;;;;;5075201;28;20412;-68
2022/10/22 11:04:39;;;;;;;5.93;5.07;;;18.60;99.90;;;;;;5074300;28;20879;-69
2022/10/22 11:07:12;;;;;;;5.40;3.40;;;18.50;99.90;;;;;;5074458;28;20487;-68
2022/10/22 11:09:49;;;;;;;5.07;4.67;;;18.50;99.90;;;;;;5075181;28;20404;-68
2022/10/22 11:12:22;;;;;;;5.27;4.77;;;18.40;99.90;;;;;;5074435;28;20399;-69
2022/10/22 11:14:58;;;;;;;4.43;4.03;;;18.40;99.90;;;;;;5074730;28;20403;-69
2022/10/22 11:17:31;;;;;;;6.20;5.60;;;18.30;99.90;;;;;;5073402;28;20506;-70
2022/10/22 11:20:21;;;;;;;5.70;4.13;;;18.20;99.90;;;;;;5074848;28;20415;-68
2022/10/22 11:22:59;;;;;;;5.13;4.73;;;18.20;99.90;;;;;;5074454;28;20411;-69
2022/10/22 11:25:30;;;;;;;5.17;4.77;;;18.20;99.90;;;;;;5074432;28;20407;-69
2022/10/22 11:28:13;;;;;;;6.47;5.30;;;18.20;99.90;;;;;;5074375;28;20880;-68
2022/10/22 11:30:42;;;;;;;4.60;4.20;;;18.20;99.90;;;;;;5074707;28;20435;-69
2022/10/22 11:33:15;;;;;;;4.60;4.23;;;18.10;99.90;;;;;;5073905;28;20410;-69
2022/10/22 11:35:43;;;;;;;3.87;3.60;;;18.10;99.90;;;;;;5074481;28;20408;-69
2022/10/22 11:38:17;;;;;;;4.33;4.03;;;18.00;99.90;;;;;;5073944;28;20447;-69
2022/10/22 11:40:57;;;;;;;3.90;3.53;;;18.00;99.90;;;;;;5074425;28;20400;-68
2022/10/22 11:43:26;;;;;;;5.37;4.67;;;18.00;99.90;;;;;;5074012;28;20406;-69
2022/10/22 11:46:03;;;;;;;4.80;3.90;;;17.90;99.90;;;;;;5074231;28;20815;-69
2022/10/22 11:48:36;;;;;;;4.23;3.90;;;18.00;99.90;;;;;;5074050;28;20742;-69
2022/10/22 11:51:03;;;;;;;5.77;3.43;;;18.00;99.90;;;;;;5074233;28;20400;-69
2022/10/22 11:53:34;;;;;;;4.40;3.50;;;18.00;99.90;;;;;;5073919;28;20757;-69
2022/10/22 11:56:23;;;;;;;3.77;3.43;;;18.00;99.90;;;;;;5056169;28;20761;-69
2022/10/22 11:58:49;;;;;;;4.00;3.70;;;18.00;99.90;;;;;;5073743;28;20851;-69
2022/10/22 12:01:22;;;;;;;3.70;3.50;;;18.00;99.90;;;;;;5073370;28;20432;-69
2022/10/22 12:03:57;;;;;;;4.43;3.03;;;18.10;99.90;;;;;;5073962;28;20517;-69
2022/10/22 12:06:25;;;;;;;4.10;3.40;;;18.10;99.90;;;;;;5055404;28;20435;-69
2022/10/22 12:08:53;;;;;;;5.57;3.27;;;18.10;99.90;;;;;;5074039;28;20476;-69
2022/10/22 12:11:23;;;;;;;3.47;3.27;;;18.10;99.90;;;;;;5073177;28;20519;-69
2022/10/22 12:14:14;;;;;;;5.10;3.20;;;18.10;99.90;;;;;;5073510;28;20422;-69
2022/10/22 12:16:43;;;;;;;4.30;3.73;;;18.00;99.90;;;;;;5073488;28;20517;-68
2022/10/22 12:19:35;;;;;;;4.20;3.80;;;18.00;99.90;;;;;;5054670;28;20972;-71
2022/10/22 12:22:18;;;;;;;3.40;3.10;;;18.00;99.90;;;;;;5073497;28;20838;-69
2022/10/22 12:24:48;;;;;;;5.00;3.10;;;18.10;99.90;;;;;;5073610;28;20411;-69
2022/10/22 12:27:22;;;;;;;3.80;3.53;;;18.00;99.90;;;;;;5072855;28;20435;-69
2022/10/22 12:29:52;;;;;;;4.93;4.10;;;18.00;99.90;;;;;;5073251;28;20884;-68
2022/10/22 12:32:18;;;;;;;4.77;3.50;;;18.00;99.90;;;;;;5072732;28;20417;-69
2022/10/22 12:34:46;;;;;;;5.20;3.60;;;17.90;99.90;;;;;;5073273;28;20403;-69
2022/10/22 12:37:13;;;;;;;5.10;4.70;;;17.90;99.90;;;;;;5072350;28;20184;-69
2022/10/22 12:39:38;;;;;;;5.20;4.80;;;17.90;99.90;;;;;;5073255;28;20498;-69
2022/10/22 12:42:06;;;;;;;5.00;4.73;;;18.00;99.90;;;;;;5073148;28;20431;-68
2022/10/22 12:44:32;;;;;;;5.57;3.70;;;18.00;99.90;;;;;;5073078;28;20181;-69
2022/10/22 12:46:58;;;;;;;3.83;3.53;;;18.00;99.90;;;;;;5073006;28;20503;-69
2022/10/22 12:49:39;;;;;;;5.93;3.07;;;18.00;99.90;;;;;;5072486;28;20199;-68
2022/10/22 12:52:11;;;;;;;3.23;3.03;;;18.00;99.90;;;;;;5072743;28;20430;-68
2022/10/22 12:54:38;;;;;;;3.70;3.40;;;18.00;99.90;;;;;;5055376;28;20395;-68
2022/10/22 12:57:04;;;;;;;3.37;3.07;;;18.00;99.90;;;;;;5072906;28;20404;-68
2022/10/22 12:59:34;;;;;;;4.10;2.70;;;18.00;99.90;;;;;;5071373;28;20466;-69
2022/10/22 13:02:01;;;;;;;2.60;2.40;;;18.10;99.90;;;;;;5072976;28;20173;-68